sensor_id;sensor_type;location;lat;lon;timestamp;temperature;humidity
5419;DHT22;2732;52.092;11.556;2022-09-01T00:00:12;15.30;94.50
5419;DHT22;2732;52.092;11.556;2022-09-01T00:05:14;15.30;94.80
5419;DHT22;2732;52.092;11.556;2022-09-01T00:10:15;15.20;94.90
5419;DHT22;2732;52.092;11.556;2022-09-01T00:15:16;15.20;95.20
5419;DHT22;2732;52.092;11.556;2022-09-01T00:20:17;15.10;95.40
5419;DHT22;2732;52.092;11.556;2022-09-01T00:25:19;15.00;95.60
5419;DHT22;2732;52.092;11.556;2022-09-01T00:30:20;15.00;96.00
5419;DHT22;2732;52.092;11.556;2022-09-01T00:35:21;14.90;96.20
5419;DHT22;2732;52.092;11.556;2022-09-01T00:40:21;14.80;96.40
5419;DHT22;2732;52.092;11.556;2022-09-01T00:45:22;14.70;96.70
5419;DHT22;2732;52.092;11.556;2022-09-01T00:50:23;14.70;97.00
5419;DHT22;2732;52.092;11.556;2022-09-01T00:55:28;14.60;97.30
5419;DHT22;2732;52.092;11.556;2022-09-01T01:00:32;14.60;97.50
5419;DHT22;2732;52.092;11.556;2022-09-01T01:05:43;14.50;98.00
5419;DHT22;2732;52.092;11.556;2022-09-01T01:10:53;14.50;98.20
5419;DHT22;2732;52.092;11.556;2022-09-01T01:15:54;14.40;98.60
5419;DHT22;2732;52.092;11.556;2022-09-01T01:21:05;14.40;98.80
5419;DHT22;2732;52.092;11.556;2022-09-01T01:26:24;14.30;99.20
5419;DHT22;2732;52.092;11.556;2022-09-01T01:31:26;14.30;99.50
5419;DHT22;2732;52.092;11.556;2022-09-01T01:36:32;14.20;99.80
5419;DHT22;2732;52.092;11.556;2022-09-01T01:41:37;14.20;99.90
5419;DHT22;2732;52.092;11.556;2022-09-01T01:46:49;14.20;99.90
5419;DHT22;2732;52.092;11.556;2022-09-01T01:51:52;14.20;99.90
5419;DHT22;2732;52.092;11.556;2022-09-01T01:56:55;14.20;99.90
5419;DHT22;2732;52.092;11.556;2022-09-01T02:02:00;14.20;99.90
5419;DHT22;2732;52.092;11.556;2022-09-01T02:07:02;14.20;99.90
5419;DHT22;2732;52.092;11.556;2022-09-01T02:12:03;14.20;99.90
5419;DHT22;2732;52.092;11.556;2022-09-01T02:17:04;14.20;99.90
5419;DHT22;2732;52.092;11.556;2022-09-01T02:22:06;14.10;99.90
5419;DHT22;2732;52.092;11.556;2022-09-01T02:27:10;14.10;99.90
5419;DHT22;2732;52.092;11.556;2022-09-01T02:32:10;14.10;99.90
5419;DHT22;2732;52.092;11.556;2022-09-01T02:37:11;14.20;99.90
5419;DHT22;2732;52.092;11.556;2022-09-01T02:42:12;14.10;99.90
5419;DHT22;2732;52.092;11.556;2022-09-01T02:47:14;14.20;99.90
5419;DHT22;2732;52.092;11.556;2022-09-01T02:52:15;14.20;99.90
5419;DHT22;2732;52.092;11.556;2022-09-01T02:57:17;14.20;99.90
5419;DHT22;2732;52.092;11.556;2022-09-01T03:02:17;14.10;99.90
5419;DHT22;2732;52.092;11.556;2022-09-01T03:07:18;14.20;99.90
5419;DHT22;2732;52.092;11.556;2022-09-01T03:12:21;14.20;99.90
5419;DHT22;2732;52.092;11.556;2022-09-01T03:17:23;14.20;99.90
5419;DHT22;2732;52.092;11.556;2022-09-01T03:22:23;14.20;99.90
5419;DHT22;2732;52.092;11.556;2022-09-01T03:27:24;14.20;99.90
5419;DHT22;2732;52.092;11.556;2022-09-01T03:32:25;14.20;99.90
5419;DHT22;2732;52.092;11.556;2022-09-01T03:37:25;14.20;99.90
5419;DHT22;2732;52.092;11.556;2022-09-01T03:42:26;14.20;99.90
5419;DHT22;2732;52.092;11.556;2022-09-01T03:47:28;14.20;99.90
5419;DHT22;2732;52.092;11.556;2022-09-01T03:52:29;14.20;99.90
5419;DHT22;2732;52.092;11.556;2022-09-01T03:57:30;14.20;99.90
5419;DHT22;2732;52.092;11.556;2022-09-01T04:02:30;14.20;99.90
5419;DHT22;2732;52.092;11.556;2022-09-01T04:07:31;14.30;99.90
5419;DHT22;2732;52.092;11.556;2022-09-01T04:12:32;14.30;99.90
5419;DHT22;2732;52.092;11.556;2022-09-01T04:17:33;14.30;99.90
5419;DHT22;2732;52.092;11.556;2022-09-01T04:22:52;14.30;99.90
5419;DHT22;2732;52.092;11.556;2022-09-01T04:27:54;14.30;99.90
5419;DHT22;2732;52.092;11.556;2022-09-01T04:32:56;14.30;99.90
5419;DHT22;2732;52.092;11.556;2022-09-01T04:37:57;14.40;99.90
5419;DHT22;2732;52.092;11.556;2022-09-01T04:42:59;14.40;99.90
5419;DHT22;2732;52.092;11.556;2022-09-01T04:47:59;14.40;99.90
5419;DHT22;2732;52.092;11.556;2022-09-01T04:53:01;14.40;99.90
5419;DHT22;2732;52.092;11.556;2022-09-01T04:58:05;14.50;99.90
5419;DHT22;2732;52.092;11.556;2022-09-01T05:03:06;14.50;99.90
5419;DHT22;2732;52.092;11.556;2022-09-01T05:08:11;14.50;99.90
5419;DHT22;2732;52.092;11.556;2022-09-01T05:13:15;14.60;99.90
5419;DHT22;2732;52.092;11.556;2022-09-01T05:18:18;14.60;99.90
5419;DHT22;2732;52.092;11.556;2022-09-01T05:23:23;14.70;99.90
5419;DHT22;2732;52.092;11.556;2022-09-01T05:28:25;14.70;99.90
5419;DHT22;2732;52.092;11.556;2022-09-01T05:33:26;14.80;99.90
5419;DHT22;2732;52.092;11.556;2022-09-01T05:38:27;14.90;99.90
5419;DHT22;2732;52.092;11.556;2022-09-01T05:43:31;15.00;99.90
5419;DHT22;2732;52.092;11.556;2022-09-01T05:48:33;15.10;99.90
5419;DHT22;2732;52.092;11.556;2022-09-01T05:53:39;15.20;99.90
5419;DHT22;2732;52.092;11.556;2022-09-01T05:58:40;15.30;99.90
5419;DHT22;2732;52.092;11.556;2022-09-01T06:03:44;15.40;99.90
5419;DHT22;2732;52.092;11.556;2022-09-01T06:08:45;15.60;99.90
5419;DHT22;2732;52.092;11.556;2022-09-01T06:13:48;15.70;99.90
5419;DHT22;2732;52.092;11.556;2022-09-01T06:18:51;15.80;99.90
5419;DHT22;2732;52.092;11.556;2022-09-01T06:23:54;15.90;99.90
5419;DHT22;2732;52.092;11.556;2022-09-01T06:28:57;15.90;99.90
5419;DHT22;2732;52.092;11.556;2022-09-01T06:34:02;15.80;99.90
5419;DHT22;2732;52.092;11.556;2022-09-01T06:39:03;15.80;99.90
5419;DHT22;2732;52.092;11.556;2022-09-01T06:44:04;15.70;99.90
5419;DHT22;2732;52.092;11.556;2022-09-01T06:49:05;15.70;99.90
5419;DHT22;2732;52.092;11.556;2022-09-01T06:54:10;15.70;99.90
5419;DHT22;2732;52.092;11.556;2022-09-01T06:59:13;15.70;99.90
5419;DHT22;2732;52.092;11.556;2022-09-01T07:04:14;15.70;99.90
5419;DHT22;2732;52.092;11.556;2022-09-01T07:09:21;15.70;99.90
5419;DHT22;2732;52.092;11.556;2022-09-01T07:14:23;15.80;99.90
5419;DHT22;2732;52.092;11.556;2022-09-01T07:19:24;15.80;99.60
5419;DHT22;2732;52.092;11.556;2022-09-01T07:24:26;15.90;99.10
5419;DHT22;2732;52.092;11.556;2022-09-01T07:29:28;15.90;98.80
5419;DHT22;2732;52.092;11.556;2022-09-01T07:34:29;16.10;99.00
5419;DHT22;2732;52.092;11.556;2022-09-01T07:39:30;16.40;98.70
5419;DHT22;2732;52.092;11.556;2022-09-01T07:44:30;16.80;98.10
5419;DHT22;2732;52.092;11.556;2022-09-01T07:49:34;17.20;97.60
5419;DHT22;2732;52.092;11.556;2022-09-01T07:54:37;17.60;96.90
5419;DHT22;2732;52.092;11.556;2022-09-01T07:59:37;18.10;96.10
5419;DHT22;2732;52.092;11.556;2022-09-01T08:04:38;18.40;95.60
5419;DHT22;2732;52.092;11.556;2022-09-01T08:09:39;18.70;94.50
5419;DHT22;2732;52.092;11.556;2022-09-01T08:14:40;19.10;93.90
5419;DHT22;2732;52.092;11.556;2022-09-01T08:19:40;19.40;93.60
5419;DHT22;2732;52.092;11.556;2022-09-01T08:24:42;19.80;93.00
5419;DHT22;2732;52.092;11.556;2022-09-01T08:29:43;20.10;92.40
5419;DHT22;2732;52.092;11.556;2022-09-01T08:34:43;20.40;91.70
5419;DHT22;2732;52.092;11.556;2022-09-01T08:39:44;20.80;91.40
5419;DHT22;2732;52.092;11.556;2022-09-01T08:45:00;21.10;91.00
5419;DHT22;2732;52.092;11.556;2022-09-01T08:50:04;21.40;90.40
5419;DHT22;2732;52.092;11.556;2022-09-01T09:00:41;22.10;88.60
5419;DHT22;2732;52.092;11.556;2022-09-01T09:16:55;23.10;82.10
5419;DHT22;2732;52.092;11.556;2022-09-01T09:21:58;23.40;81.40
5419;DHT22;2732;52.092;11.556;2022-09-01T09:27:00;23.70;80.10
5419;DHT22;2732;52.092;11.556;2022-09-01T09:32:05;24.00;78.20
5419;DHT22;2732;52.092;11.556;2022-09-01T09:37:28;24.20;76.40
5419;DHT22;2732;52.092;11.556;2022-09-01T09:42:30;24.60;75.20
5419;DHT22;2732;52.092;11.556;2022-09-01T09:47:39;24.80;73.80
5419;DHT22;2732;52.092;11.556;2022-09-01T09:52:41;25.00;73.00
5419;DHT22;2732;52.092;11.556;2022-09-01T09:57:47;25.30;72.50
5419;DHT22;2732;52.092;11.556;2022-09-01T10:02:54;25.50;70.50
5419;DHT22;2732;52.092;11.556;2022-09-01T10:07:56;25.70;69.30
5419;DHT22;2732;52.092;11.556;2022-09-01T10:12:58;25.90;68.70
5419;DHT22;2732;52.092;11.556;2022-09-01T10:18:05;26.10;68.30
5419;DHT22;2732;52.092;11.556;2022-09-01T10:23:11;26.30;66.70
5419;DHT22;2732;52.092;11.556;2022-09-01T10:28:15;26.50;66.20
5419;DHT22;2732;52.092;11.556;2022-09-01T10:33:20;26.70;64.20
5419;DHT22;2732;52.092;11.556;2022-09-01T10:38:27;26.90;62.30
5419;DHT22;2732;52.092;11.556;2022-09-01T10:43:38;27.10;60.20
5419;DHT22;2732;52.092;11.556;2022-09-01T10:48:49;27.10;58.40
5419;DHT22;2732;52.092;11.556;2022-09-01T10:53:58;27.30;58.60
5419;DHT22;2732;52.092;11.556;2022-09-01T11:04:11;27.70;56.10
5419;DHT22;2732;52.092;11.556;2022-09-01T11:09:39;27.30;55.60
5419;DHT22;2732;52.092;11.556;2022-09-01T11:14:51;27.60;55.50
5419;DHT22;2732;52.092;11.556;2022-09-01T11:19:57;28.00;55.70
5419;DHT22;2732;52.092;11.556;2022-09-01T11:31:01;28.30;53.90
5419;DHT22;2732;52.092;11.556;2022-09-01T11:36:51;28.10;53.80
5419;DHT22;2732;52.092;11.556;2022-09-01T11:42:19;28.70;53.20
5419;DHT22;2732;52.092;11.556;2022-09-01T11:47:53;29.10;52.40
5419;DHT22;2732;52.092;11.556;2022-09-01T11:57:59;28.90;50.50
5419;DHT22;2732;52.092;11.556;2022-09-01T12:03:00;29.20;51.70
5419;DHT22;2732;52.092;11.556;2022-09-01T12:08:12;29.10;51.10
5419;DHT22;2732;52.092;11.556;2022-09-01T12:13:21;28.10;51.30
5419;DHT22;2732;52.092;11.556;2022-09-01T12:18:25;28.50;51.80
5419;DHT22;2732;52.092;11.556;2022-09-01T12:23:34;29.20;50.40
5419;DHT22;2732;52.092;11.556;2022-09-01T12:28:46;29.60;49.70
5419;DHT22;2732;52.092;11.556;2022-09-01T12:33:50;30.10;50.40
5419;DHT22;2732;52.092;11.556;2022-09-01T12:38:56;29.50;50.40
5419;DHT22;2732;52.092;11.556;2022-09-01T12:49:39;27.70;51.60
5419;DHT22;2732;52.092;11.556;2022-09-01T12:54:41;27.00;52.50
5419;DHT22;2732;52.092;11.556;2022-09-01T12:59:42;26.60;53.10
5419;DHT22;2732;52.092;11.556;2022-09-01T13:04:43;27.60;52.60
5419;DHT22;2732;52.092;11.556;2022-09-01T13:09:44;28.40;52.00
5419;DHT22;2732;52.092;11.556;2022-09-01T13:14:45;28.00;51.90
5419;DHT22;2732;52.092;11.556;2022-09-01T13:19:46;27.30;53.00
5419;DHT22;2732;52.092;11.556;2022-09-01T13:24:47;27.10;53.40
5419;DHT22;2732;52.092;11.556;2022-09-01T13:29:48;26.50;53.60
5419;DHT22;2732;52.092;11.556;2022-09-01T13:34:51;26.10;54.00
5419;DHT22;2732;52.092;11.556;2022-09-01T13:39:53;26.40;53.40
5419;DHT22;2732;52.092;11.556;2022-09-01T13:44:53;27.20;53.00
5419;DHT22;2732;52.092;11.556;2022-09-01T13:49:54;28.00;52.80
5419;DHT22;2732;52.092;11.556;2022-09-01T13:54:54;28.20;52.60
5419;DHT22;2732;52.092;11.556;2022-09-01T13:59:55;27.50;52.80
5419;DHT22;2732;52.092;11.556;2022-09-01T14:04:57;27.00;53.70
5419;DHT22;2732;52.092;11.556;2022-09-01T14:09:58;27.30;53.50
5419;DHT22;2732;52.092;11.556;2022-09-01T14:14:59;27.80;53.30
5419;DHT22;2732;52.092;11.556;2022-09-01T14:20:00;28.20;52.00
5419;DHT22;2732;52.092;11.556;2022-09-01T14:25:01;28.40;51.70
5419;DHT22;2732;52.092;11.556;2022-09-01T14:30:04;28.40;51.90
5419;DHT22;2732;52.092;11.556;2022-09-01T14:35:06;28.50;51.30
5419;DHT22;2732;52.092;11.556;2022-09-01T14:40:10;27.80;51.50
5419;DHT22;2732;52.092;11.556;2022-09-01T14:45:16;27.90;51.30
5419;DHT22;2732;52.092;11.556;2022-09-01T14:50:29;28.10;50.90
5419;DHT22;2732;52.092;11.556;2022-09-01T14:55:31;28.40;51.10
5419;DHT22;2732;52.092;11.556;2022-09-01T15:00:32;28.40;50.80
5419;DHT22;2732;52.092;11.556;2022-09-01T15:05:35;28.30;51.00
5419;DHT22;2732;52.092;11.556;2022-09-01T15:10:40;28.20;51.50
5419;DHT22;2732;52.092;11.556;2022-09-01T15:15:40;27.60;52.20
5419;DHT22;2732;52.092;11.556;2022-09-01T15:20:42;27.00;51.90
5419;DHT22;2732;52.092;11.556;2022-09-01T15:25:46;26.60;52.30
5419;DHT22;2732;52.092;11.556;2022-09-01T15:30:49;26.80;52.40
5419;DHT22;2732;52.092;11.556;2022-09-01T15:35:50;27.00;52.10
5419;DHT22;2732;52.092;11.556;2022-09-01T15:40:51;27.10;52.10
5419;DHT22;2732;52.092;11.556;2022-09-01T15:45:52;27.30;51.60
5419;DHT22;2732;52.092;11.556;2022-09-01T15:50:52;27.50;52.20
5419;DHT22;2732;52.092;11.556;2022-09-01T15:56:02;27.60;52.10
5419;DHT22;2732;52.092;11.556;2022-09-01T16:01:02;27.60;52.00
5419;DHT22;2732;52.092;11.556;2022-09-01T16:06:03;27.70;51.50
5419;DHT22;2732;52.092;11.556;2022-09-01T16:11:06;27.60;51.00
5419;DHT22;2732;52.092;11.556;2022-09-01T16:16:39;27.60;51.40
5419;DHT22;2732;52.092;11.556;2022-09-01T16:21:48;27.50;51.60
5419;DHT22;2732;52.092;11.556;2022-09-01T16:26:55;27.50;51.20
5419;DHT22;2732;52.092;11.556;2022-09-01T16:31:56;27.40;51.10
5419;DHT22;2732;52.092;11.556;2022-09-01T16:37:04;27.30;50.90
5419;DHT22;2732;52.092;11.556;2022-09-01T16:42:39;27.00;51.10
5419;DHT22;2732;52.092;11.556;2022-09-01T16:59:32;25.70;53.00
5419;DHT22;2732;52.092;11.556;2022-09-01T17:04:45;25.20;53.60
5419;DHT22;2732;52.092;11.556;2022-09-01T17:09:58;24.80;54.60
5419;DHT22;2732;52.092;11.556;2022-09-01T17:15:08;24.40;55.40
5419;DHT22;2732;52.092;11.556;2022-09-01T17:20:11;24.10;56.10
5419;DHT22;2732;52.092;11.556;2022-09-01T17:25:30;23.70;56.80
5419;DHT22;2732;52.092;11.556;2022-09-01T17:30:33;23.40;57.20
5419;DHT22;2732;52.092;11.556;2022-09-01T17:35:59;23.10;57.80
5419;DHT22;2732;52.092;11.556;2022-09-01T17:46:16;22.50;58.30
5419;DHT22;2732;52.092;11.556;2022-09-01T17:51:39;22.30;58.90
5419;DHT22;2732;52.092;11.556;2022-09-01T18:02:13;21.80;59.80
5419;DHT22;2732;52.092;11.556;2022-09-01T18:13:44;21.30;60.40
5419;DHT22;2732;52.092;11.556;2022-09-01T18:18:48;21.00;60.70
5419;DHT22;2732;52.092;11.556;2022-09-01T18:24:13;20.80;61.10
5419;DHT22;2732;52.092;11.556;2022-09-01T18:29:37;20.60;61.50
5419;DHT22;2732;52.092;11.556;2022-09-01T18:40:02;20.20;62.50
5419;DHT22;2732;52.092;11.556;2022-09-01T18:45:22;20.10;63.00
5419;DHT22;2732;52.092;11.556;2022-09-01T18:50:46;19.90;64.00
5419;DHT22;2732;52.092;11.556;2022-09-01T18:56:03;19.70;63.80
5419;DHT22;2732;52.092;11.556;2022-09-01T19:01:12;19.60;64.30
5419;DHT22;2732;52.092;11.556;2022-09-01T19:06:30;19.40;64.60
5419;DHT22;2732;52.092;11.556;2022-09-01T19:11:38;19.30;64.90
5419;DHT22;2732;52.092;11.556;2022-09-01T19:17:03;19.10;65.20
5419;DHT22;2732;52.092;11.556;2022-09-01T19:22:17;19.00;65.50
5419;DHT22;2732;52.092;11.556;2022-09-01T19:27:24;18.90;65.90
5419;DHT22;2732;52.092;11.556;2022-09-01T19:32:30;18.70;66.20
5419;DHT22;2732;52.092;11.556;2022-09-01T19:37:31;18.60;66.60
5419;DHT22;2732;52.092;11.556;2022-09-01T19:42:58;18.50;66.90
5419;DHT22;2732;52.092;11.556;2022-09-01T19:48:14;18.40;67.30
5419;DHT22;2732;52.092;11.556;2022-09-01T19:53:34;18.30;67.60
5419;DHT22;2732;52.092;11.556;2022-09-01T20:04:09;18.10;68.50
5419;DHT22;2732;52.092;11.556;2022-09-01T20:09:45;18.00;68.90
5419;DHT22;2732;52.092;11.556;2022-09-01T20:20:16;17.80;69.80
5419;DHT22;2732;52.092;11.556;2022-09-01T20:25:25;17.80;70.70
5419;DHT22;2732;52.092;11.556;2022-09-01T20:30:35;17.70;71.60
5419;DHT22;2732;52.092;11.556;2022-09-01T20:35:49;17.70;72.20
5419;DHT22;2732;52.092;11.556;2022-09-01T20:40:55;17.70;72.60
5419;DHT22;2732;52.092;11.556;2022-09-01T20:46:02;17.60;73.00
5419;DHT22;2732;52.092;11.556;2022-09-01T20:51:30;17.60;73.90
5419;DHT22;2732;52.092;11.556;2022-09-01T21:07:19;17.40;75.00
5419;DHT22;2732;52.092;11.556;2022-09-01T21:17:55;17.30;75.70
5419;DHT22;2732;52.092;11.556;2022-09-01T21:23:00;17.20;76.10
5419;DHT22;2732;52.092;11.556;2022-09-01T21:28:03;17.20;76.40
5419;DHT22;2732;52.092;11.556;2022-09-01T21:33:05;17.20;77.00
5419;DHT22;2732;52.092;11.556;2022-09-01T21:38:06;17.10;77.40
5419;DHT22;2732;52.092;11.556;2022-09-01T21:43:15;17.10;77.60
5419;DHT22;2732;52.092;11.556;2022-09-01T21:48:18;17.00;78.00
5419;DHT22;2732;52.092;11.556;2022-09-01T21:53:19;17.00;78.30
5419;DHT22;2732;52.092;11.556;2022-09-01T21:58:19;16.90;79.70
5419;DHT22;2732;52.092;11.556;2022-09-01T22:03:20;16.80;79.30
5419;DHT22;2732;52.092;11.556;2022-09-01T22:08:21;16.80;79.80
5419;DHT22;2732;52.092;11.556;2022-09-01T22:13:23;16.80;80.50
5419;DHT22;2732;52.092;11.556;2022-09-01T22:18:24;16.70;80.70
5419;DHT22;2732;52.092;11.556;2022-09-01T22:23:25;16.60;81.10
5419;DHT22;2732;52.092;11.556;2022-09-01T22:28:26;16.60;81.60
5419;DHT22;2732;52.092;11.556;2022-09-01T22:33:28;16.60;82.10
5419;DHT22;2732;52.092;11.556;2022-09-01T22:38:29;16.50;82.30
5419;DHT22;2732;52.092;11.556;2022-09-01T22:43:30;16.50;82.80
5419;DHT22;2732;52.092;11.556;2022-09-01T22:48:31;16.40;83.00
5419;DHT22;2732;52.092;11.556;2022-09-01T22:53:31;16.40;83.30
5419;DHT22;2732;52.092;11.556;2022-09-01T22:58:32;16.30;83.90
5419;DHT22;2732;52.092;11.556;2022-09-01T23:03:32;16.20;84.20
5419;DHT22;2732;52.092;11.556;2022-09-01T23:08:33;16.20;84.80
5419;DHT22;2732;52.092;11.556;2022-09-01T23:13:34;16.10;85.20
5419;DHT22;2732;52.092;11.556;2022-09-01T23:18:37;16.00;85.40
5419;DHT22;2732;52.092;11.556;2022-09-01T23:23:39;15.90;85.90
5419;DHT22;2732;52.092;11.556;2022-09-01T23:28:42;15.80;87.00
5419;DHT22;2732;52.092;11.556;2022-09-01T23:33:44;15.80;86.70
5419;DHT22;2732;52.092;11.556;2022-09-01T23:38:47;15.70;87.30
5419;DHT22;2732;52.092;11.556;2022-09-01T23:43:49;15.60;88.00
5419;DHT22;2732;52.092;11.556;2022-09-01T23:48:51;15.50;88.60
5419;DHT22;2732;52.092;11.556;2022-09-01T23:53:53;15.40;89.00
5419;DHT22;2732;52.092;11.556;2022-09-01T23:58:54;15.30;89.50
